Time;durP1;ratioP1;P1;durP2;ratioP2;P2;SDS_P1;SDS_P2;PMS_P1;PMS_P2;Temp;Humidity;BMP_temperature;BMP_pressure;BME280_temperature;BME280_humidity;BME280_pressure;Samples;Min_cycle;Max_cycle;Signal;HPM_P1;HPM_P2
2022/08/11 00:02:29;;;;;;;;;;;;;;;18.73;59.17;100167.44;5057919;28;19964;-70
2022/08/11 00:05:01;;;;;;;;;;;;;;;18.77;59.31;100172.50;5057522;28;19925;-70
2022/08/11 00:07:29;;;;;;;;;;;;;;;18.77;59.30;100175.09;5057516;28;19939;-70
2022/08/11 00:09:58;;;;;;;;;;;;;;;18.73;59.43;100177.78;5057994;28;20282;-70
2022/08/11 00:12:27;;;;;;;;;;;;;;;18.74;59.50;100176.88;5057511;28;20379;-70
2022/08/11 00:14:57;;;;;;;;;;;;;;;18.76;59.62;100173.41;5056330;28;19925;-70
2022/08/11 00:17:31;;;;;;;;;;;;;;;18.77;59.68;100175.09;5057186;28;19925;-70
2022/08/11 00:20:02;;;;;;;;;;;;;;;18.72;59.71;100178.66;5057863;28;19925;-70
2022/08/11 00:22:46;;;;;;;;;;;;;;;18.77;60.09;100170.75;5057158;28;20449;-70
2022/08/11 00:25:16;;;;;;;;;;;;;;;18.78;59.80;100166.44;5057399;28;19964;-70
2022/08/11 00:27:44;;;;;;;;;;;;;;;18.73;60.21;100175.19;5057647;28;20355;-70
2022/08/11 00:30:15;;;;;;;;;;;;;;;18.71;59.74;100171.75;5056877;28;19924;-70
2022/08/11 00:32:46;;;;;;;;;;;;;;;18.83;59.52;100172.34;5056905;28;19933;-70
2022/08/11 00:35:17;;;;;;;;;;;;;;;18.88;59.47;100170.50;5057266;28;19925;-70
2022/08/11 00:38:06;;;;;;;;;;;;;;;18.86;59.68;100165.34;5057278;28;20400;-70
2022/08/11 00:40:38;;;;;;;;;;;;;;;18.82;59.59;100174.09;5056746;28;19925;-70
2022/08/11 00:43:13;;;;;;;;;;;;;;;18.74;59.85;100174.28;5056864;28;19929;-70
2022/08/11 00:46:02;;;;;;;;;;;;;;;18.67;59.71;100164.97;5056669;28;19924;-70
2022/08/11 00:48:36;;;;;;;;;;;;;;;18.57;59.97;100168.69;5055753;28;19928;-70
2022/08/11 00:51:09;;;;;;;;;;;;;;;18.56;60.08;100172.19;5057006;28;19975;-70
2022/08/11 00:53:46;;;;;;;;;;;;;;;18.53;60.17;100172.25;5056540;28;19967;-70
2022/08/11 00:56:25;;;;;;;;;;;;;;;18.52;60.27;100165.38;5056511;28;19970;-70
2022/08/11 00:59:13;;;;;;;;;;;;;;;18.61;60.10;100159.97;5056537;28;19925;-70
2022/08/11 01:02:13;;;;;;;;;;;;;;;18.64;60.20;100165.06;5055949;28;19925;-70
2022/08/11 01:04:52;;;;;;;;;;;;;;;18.69;60.11;100168.38;5056447;28;19940;-70
2022/08/11 01:07:40;;;;;;;;;;;;;;;18.69;60.00;100158.03;5056608;28;20351;-70
2022/08/11 01:10:45;;;;;;;;;;;;;;;18.74;59.78;100158.75;5056257;28;19971;-70
2022/08/11 01:13:19;;;;;;;;;;;;;;;18.70;59.89;100162.31;5056732;28;20432;-70
2022/08/11 01:15:58;;;;;;;;;;;;;;;18.67;59.92;100164.97;5056130;28;19925;-70
2022/08/11 01:18:37;;;;;;;;;;;;;;;18.74;59.83;100156.19;5056158;28;20413;-70
2022/08/11 01:21:15;;;;;;;;;;;;;;;18.80;59.70;100154.31;5056067;28;20374;-70
2022/08/11 01:24:04;;;;;;;;;;;;;;;18.74;59.76;100151.00;5056066;28;20377;-70
2022/08/11 01:27:00;;;;;;;;;;;;;;;18.71;59.86;100151.06;5039012;28;20366;-70
2022/08/11 01:29:43;;;;;;;;;;;;;;;18.78;59.62;100145.75;5055677;28;19978;-70
2022/08/11 01:32:28;;;;;;;;;;;;;;;18.81;59.43;100150.84;5048372;28;20389;-70
2022/08/11 01:35:07;;;;;;;;;;;;;;;18.82;59.24;100147.38;5055743;28;19931;-70
2022/08/11 01:37:48;;;;;;;;;;;;;;;18.78;59.27;100153.50;5055736;28;19960;-70
2022/08/11 01:40:34;;;;;;;;;;;;;;;18.82;58.76;100150.81;5056063;28;19925;-70
2022/08/11 01:46:00;;;;;;;;;;;;;;;18.78;58.87;100156.09;5055630;28;19931;-70
2022/08/11 01:48:34;;;;;;;;;;;;;;;18.71;58.94;100153.66;5055830;28;19990;-70
2022/08/11 01:51:12;;;;;;;;;;;;;;;18.72;58.82;100152.78;5055537;28;19929;-70
2022/08/11 01:53:49;;;;;;;;;;;;;;;18.67;58.58;100154.63;5055932;28;20024;-70
2022/08/11 01:56:29;;;;;;;;;;;;;;;18.52;58.98;100155.03;5055465;28;19925;-70
2022/08/11 01:59:03;;;;;;;;;;;;;;;18.35;59.67;100146.84;5055657;28;19929;-70
2022/08/11 02:01:39;;;;;;;;;;;;;;;18.27;59.95;100153.91;5055375;28;19935;-70
2022/08/11 02:04:15;;;;;;;;;;;;;;;18.26;60.04;100148.81;5055606;28;19928;-70
2022/08/11 02:09:34;;;;;;;;;;;;;;;18.41;60.10;100146.66;5055117;28;19932;-70
2022/08/11 02:12:11;;;;;;;;;;;;;;;18.41;60.09;100144.09;5055361;28;19925;-70
2022/08/11 02:14:44;;;;;;;;;;;;;;;18.37;60.12;100144.19;5053155;28;19924;-70
2022/08/11 02:17:41;;;;;;;;;;;;;;;18.32;60.25;100146.91;5055364;28;20054;-70
2022/08/11 02:25:38;;;;;;;;;;;;;;;18.12;60.87;100143.94;5054863;28;19975;-70
2022/08/11 02:28:08;;;;;;;;;;;;;;;18.06;60.71;100141.53;5055077;28;19978;-70
2022/08/11 02:30:41;;;;;;;;;;;;;;;18.04;60.86;100145.88;5054685;28;19978;-70
2022/08/11 02:35:58;;;;;;;;;;;;;;;17.96;60.79;100145.19;5054629;28;19925;-70
2022/08/11 02:38:30;;;;;;;;;;;;;;;18.03;60.62;100151.91;5053674;28;19925;-70
2022/08/11 02:42:21;;;;;;;;;;;;;;;17.91;60.78;100154.78;5054657;28;19925;-70
2022/08/11 02:44:06;;;;;;;;;;;;;;;17.74;61.52;100147.41;5054314;28;19963;-70
2022/08/11 02:46:47;;;;;;;;;;;;;;;17.70;61.84;100150.09;5053917;28;20287;-70
2022/08/11 02:52:06;;;;;;;;;;;;;;;17.50;62.54;100147.06;5054728;28;19979;-70
2022/08/11 02:54:39;;;;;;;;;;;;;;;17.40;62.67;100149.84;5054331;28;19925;-70
2022/08/11 02:57:13;;;;;;;;;;;;;;;17.32;62.83;100143.97;5053252;28;20015;-71
2022/08/11 02:59:50;;;;;;;;;;;;;;;17.30;63.01;100143.16;5054233;28;20367;-70
2022/08/11 03:02:30;;;;;;;;;;;;;;;17.29;63.36;100149.22;5054331;28;19924;-70
2022/08/11 03:05:07;;;;;;;;;;;;;;;17.32;63.60;100149.13;5054538;28;19929;-70
2022/08/11 03:07:42;;;;;;;;;;;;;;;17.38;63.47;100159.34;5054212;28;20313;-70
2022/08/11 03:10:17;;;;;;;;;;;;;;;17.41;63.50;100159.31;5054422;28;19994;-69
2022/08/11 03:18:15;;;;;;;;;;;;;;;17.57;62.93;100159.84;5054037;28;19931;-70
2022/08/11 03:20:51;;;;;;;;;;;;;;;17.50;62.79;100154.81;5053992;28;19932;-70
2022/08/11 03:23:25;;;;;;;;;;;;;;;17.37;63.36;100152.47;5053047;28;20378;-70
2022/08/11 03:25:58;;;;;;;;;;;;;;;17.37;63.35;100157.66;5053780;28;19979;-70
2022/08/11 03:28:29;;;;;;;;;;;;;;;17.31;63.09;100165.53;5054492;28;19974;-70
2022/08/11 03:31:05;;;;;;;;;;;;;;;17.24;63.49;100161.38;5052466;28;19972;-70
2022/08/11 03:36:45;;;;;;;;;;;;;;;17.24;63.55;100166.53;5052569;28;20402;-70
2022/08/11 03:39:42;;;;;;;;;;;;;;;17.33;63.07;100156.00;5053765;28;20387;-70
2022/08/11 03:42:27;;;;;;;;;;;;;;;17.40;62.78;100162.75;5054359;28;19928;-70
2022/08/11 03:45:07;;;;;;;;;;;;;;;17.42;63.00;100166.13;5054093;28;19924;-70
2022/08/11 03:47:49;;;;;;;;;;;;;;;17.44;62.76;100164.38;5053989;28;20295;-70
2022/08/11 03:50:28;;;;;;;;;;;;;;;17.46;62.69;100155.75;5054026;28;19931;-70
2022/08/11 03:53:05;;;;;;;;;;;;;;;17.40;62.76;100157.59;5053693;28;19971;-70
2022/08/11 03:55:48;;;;;;;;;;;;;;;17.34;62.98;100155.16;5054008;28;19935;-69
2022/08/11 03:58:28;;;;;;;;;;;;;;;17.29;63.35;100149.22;5053659;28;19931;-70
2022/08/11 04:01:07;;;;;;;;;;;;;;;17.31;63.09;100152.63;5053854;28;19925;-70
2022/08/11 04:03:57;;;;;;;;;;;;;;;17.35;62.52;100151.66;5053877;28;20424;-69
2022/08/11 04:06:36;;;;;;;;;;;;;;;17.38;62.02;100154.19;5050782;28;19972;-70
2022/08/11 04:12:15;;;;;;;;;;;;;;;17.37;62.14;100157.66;5112634;27;20335;-69
2022/08/11 04:17:59;;;;;;;;;;;;;;;17.28;62.69;100146.66;5111833;28;19935;-69
2022/08/11 04:20:45;;;;;;;;;;;;;;;17.28;62.89;100147.50;5112111;28;20377;-69
2022/08/11 04:23:31;;;;;;;;;;;;;;;17.28;62.70;100150.09;5104851;28;20381;-69
2022/08/11 04:26:33;;;;;;;;;;;;;;;17.28;62.27;100147.50;5111058;28;20373;-69
2022/08/11 04:29:18;;;;;;;;;;;;;;;17.35;62.14;100154.25;5111952;28;19967;-69
2022/08/11 04:32:00;;;;;;;;;;;;;;;17.44;61.90;100158.38;5111485;28;19950;-69
2022/08/11 04:34:46;;;;;;;;;;;;;;;17.44;61.98;100158.38;5111460;28;19924;-69
2022/08/11 04:40:13;;;;;;;;;;;;;;;17.48;62.36;100161.72;5111278;28;19973;-69
2022/08/11 04:45:53;;;;;;;;;;;;;;;17.59;62.37;100155.50;5110995;28;19971;-69
2022/08/11 05:02:32;;;;;;;;;;;;;;;18.15;61.61;100163.69;5110974;28;19924;-69
2022/08/11 05:08:01;;;;;;;;;;;;;;;18.30;61.33;100153.84;5111315;28;19927;-69
2022/08/11 05:10:41;;;;;;;;;;;;;;;18.38;61.29;100157.06;5119462;28;19924;-69
2022/08/11 05:34:52;;;;;;;;;;;;;;;19.29;59.42;100159.88;5117105;28;19924;-71
2022/08/11 05:37:24;;;;;;;;;;;;;;;19.41;59.39;100164.72;5117121;28;19924;-71
2022/08/11 05:56:28;;;;;;;;;;;;;;;19.96;58.42;100156.97;5116289;28;19976;-71
2022/08/11 05:58:57;;;;;;;;;;;;;;;20.08;58.12;100157.50;5098210;28;19955;-71
2022/08/11 06:01:29;;;;;;;;;;;;;;;20.16;58.06;100150.28;5116899;28;19927;-71
2022/08/11 06:06:40;;;;;;;;;;;;;;;20.33;57.50;100155.81;5116868;28;19927;-71
2022/08/11 06:09:15;;;;;;;;;;;;;;;20.45;57.52;100155.41;5116801;28;20408;-70
2022/08/11 06:11:44;;;;;;;;;;;;;;;20.51;57.39;100152.63;5116221;28;20018;-70
2022/08/11 06:14:14;;;;;;;;;;;;;;;20.57;57.55;100157.59;5116782;28;19924;-70
2022/08/11 06:16:43;;;;;;;;;;;;;;;20.60;57.29;100157.50;5116633;28;19924;-71
2022/08/11 06:19:13;;;;;;;;;;;;;;;20.73;56.57;100153.59;5116206;28;19924;-70
2022/08/11 06:21:45;;;;;;;;;;;;;;;20.88;55.91;100159.97;5116492;28;19924;-70
2022/08/11 06:24:15;;;;;;;;;;;;;;;21.08;55.44;100155.84;5116128;28;19924;-70
2022/08/11 06:26:49;;;;;;;;;;;;;;;21.16;54.79;100164.16;5116475;28;19969;-70
2022/08/11 06:29:40;;;;;;;;;;;;;;;21.17;54.17;100152.91;5116444;28;19924;-70
2022/08/11 06:32:15;;;;;;;;;;;;;;;21.27;54.29;100154.25;5115895;28;19924;-70
2022/08/11 06:34:54;;;;;;;;;;;;;;;21.38;53.79;100158.22;5114866;28;19924;-70
2022/08/11 06:37:25;;;;;;;;;;;;;;;21.47;53.47;100163.06;5115871;28;20018;-70
2022/08/11 06:40:03;;;;;;;;;;;;;;;21.53;53.37;100162.81;5115761;28;20361;-70
2022/08/11 06:42:37;;;;;;;;;;;;;;;21.51;53.27;100154.25;5116060;28;20369;-70
2022/08/11 06:45:12;;;;;;;;;;;;;;;21.56;53.38;100157.50;5115699;28;19931;-70
2022/08/11 06:47:44;;;;;;;;;;;;;;;21.63;53.04;100158.97;5116046;28;19927;-70
2022/08/11 06:52:56;;;;;;;;;;;;;;;21.93;52.28;100152.63;5115805;28;19990;-70
2022/08/11 07:01:12;;;;;;;;;;;;;;;21.92;51.60;100150.94;5115737;28;20348;-70
2022/08/11 07:03:44;;;;;;;;;;;;;;;22.07;51.80;100146.88;5115417;28;19935;-70
2022/08/11 07:06:23;;;;;;;;;;;;;;;22.15;51.88;100137.03;5115652;28;20326;-70
2022/08/11 07:17:28;;;;;;;;;;;;;;;22.61;50.81;100121.22;5115499;28;19935;-70
2022/08/11 07:30:39;;;;;;;;;;;;;;;23.14;47.50;100116.25;5097079;28;19924;-71
2022/08/11 07:33:09;;;;;;;;;;;;;;;23.19;46.98;100114.28;5114879;28;19946;-71
2022/08/11 07:35:50;;;;;;;;;;;;;;;23.38;47.09;100109.09;5114758;28;19930;-71
2022/08/11 07:38:21;;;;;;;;;;;;;;;23.54;47.07;100113.53;5114852;28;19923;-71
2022/08/11 07:40:52;;;;;;;;;;;;;;;23.63;46.90;100105.31;5114707;28;19973;-71
2022/08/11 07:43:22;;;;;;;;;;;;;;;23.72;46.72;100110.06;5115064;28;19932;-72
2022/08/11 07:53:46;;;;;;;;;;;;;;;24.33;46.23;100100.09;5114754;28;19924;-73
2022/08/11 07:56:33;;;;;;;;;;;;;;;24.51;45.46;100100.94;5114593;28;20010;-72
2022/08/11 08:18:15;;;;;;;;;;;;;;;25.25;42.90;100087.44;5114391;28;20340;-71
2022/08/11 08:20:55;;;;;;;;;;;;;;;25.46;42.44;100082.00;5114129;28;20400;-71
2022/08/11 08:23:32;;;;;;;;;;;;;;;25.30;42.36;100077.56;5113961;28;19927;-73
2022/08/11 08:26:03;;;;;;;;;;;;;;;25.29;42.62;100081.09;5096128;28;19928;-72
2022/08/11 08:28:33;;;;;;;;;;;;;;;25.37;43.36;100072.84;5114541;28;19969;-72
2022/08/11 08:31:02;;;;;;;;;;;;;;;25.51;42.86;100075.56;5114494;28;20289;-72
2022/08/11 08:33:31;;;;;;;;;;;;;;;25.55;41.62;100071.03;5113859;28;20392;-71
2022/08/11 08:36:11;;;;;;;;;;;;;;;25.78;41.57;100067.94;5114204;28;19931;-72
2022/08/11 08:38:40;;;;;;;;;;;;;;;25.78;41.12;100070.56;5113453;28;20026;-72
2022/08/11 08:41:10;;;;;;;;;;;;;;;25.82;40.99;100070.28;5113718;28;20019;-72
2022/08/11 08:43:45;;;;;;;;;;;;;;;25.84;40.34;100063.19;5114088;28;19966;-72
2022/08/11 08:46:19;;;;;;;;;;;;;;;25.91;40.52;100063.72;5114061;28;19923;-72
2022/08/11 08:48:51;;;;;;;;;;;;;;;25.99;40.12;100055.44;5114027;28;19963;-72
2022/08/11 08:54:22;;;;;;;;;;;;;;;26.19;39.49;100047.28;5113912;28;20392;-73
2022/08/11 08:56:52;;;;;;;;;;;;;;;26.16;38.88;100043.06;5097027;28;19924;-72
2022/08/11 08:59:22;;;;;;;;;;;;;;;26.23;38.83;100039.16;5117745;28;19981;-72
2022/08/11 09:01:55;;;;;;;;;;;;;;;26.36;37.98;100040.13;5118213;28;20339;-72
2022/08/11 09:04:24;;;;;;;;;;;;;;;26.45;37.11;100039.56;5099686;28;19969;-72
2022/08/11 09:06:53;;;;;;;;;;;;;;;26.48;36.88;100038.53;5117615;28;19928;-72
2022/08/11 09:09:22;;;;;;;;;;;;;;;26.54;36.79;100028.53;5117994;28;20027;-72
2022/08/11 09:11:52;;;;;;;;;;;;;;;26.72;36.90;100036.19;5095655;28;19970;-72
2022/08/11 09:14:22;;;;;;;;;;;;;;;26.80;35.47;100034.84;5097400;28;20293;-72
2022/08/11 09:16:53;;;;;;;;;;;;;;;26.96;35.39;100026.84;5097548;28;19924;-71
2022/08/11 09:19:21;;;;;;;;;;;;;;;27.08;36.72;100033.94;5097411;28;19939;-72
2022/08/11 09:27:17;;;;;;;;;;;;;;;27.21;35.21;100029.63;5095941;28;19924;-73
2022/08/11 09:29:46;;;;;;;;;;;;;;;27.32;34.79;100027.16;5096825;28;19928;-72
2022/08/11 09:32:19;;;;;;;;;;;;;;;27.41;34.92;100021.34;5096983;28;19924;-72
2022/08/11 09:34:50;;;;;;;;;;;;;;;27.43;35.10;100023.84;5096798;28;20338;-72
2022/08/11 09:45:38;;;;;;;;;;;;;;;27.87;35.67;100016.56;5096897;28;19959;-72
2022/08/11 09:48:11;;;;;;;;;;;;;;;27.95;35.41;100011.66;5096570;28;19924;-72
2022/08/11 09:50:39;;;;;;;;;;;;;;;27.98;34.97;100007.97;5096463;28;19925;-72
2022/08/11 09:53:08;;;;;;;;;;;;;;;27.95;34.82;100016.06;5096616;28;19924;-72
2022/08/11 09:55:57;;;;;;;;;;;;;;;27.86;34.81;100007.84;5096674;28;20349;-72
2022/08/11 09:58:26;;;;;;;;;;;;;;;27.92;34.21;100007.44;5096252;28;19924;-71
2022/08/11 10:01:25;;;;;;;;;;;;;;;27.90;33.38;100009.34;5096309;28;19967;-71
2022/08/11 10:04:01;;;;;;;;;;;;;;;27.79;32.87;100006.56;5096228;28;19935;-70
2022/08/11 10:09:10;;;;;;;;;;;;;;;27.86;33.40;100001.75;5096443;28;19924;-70
2022/08/11 10:11:40;;;;;;;;;;;;;;;27.76;34.27;99995.44;5092295;28;20041;-72
2022/08/11 10:17:04;;;;;;;;;;;;;;;26.94;34.68;99986.81;5096014;28;19924;-71
2022/08/11 10:19:36;;;;;;;;;;;;;;;26.76;34.85;99983.56;5096244;28;19924;-71
2022/08/11 10:27:23;;;;;;;;;;;;;;;26.76;35.43;99983.56;5096076;28;19974;-71
2022/08/11 10:35:42;;;;;;;;;;;;;;;26.74;36.08;99974.06;5095940;28;20014;-72
2022/08/11 10:38:13;;;;;;;;;;;;;;;26.72;35.21;99965.47;5095905;28;19928;-72
2022/08/11 10:40:45;;;;;;;;;;;;;;;26.81;35.47;99963.16;5095403;28;19942;-70
2022/08/11 10:43:14;;;;;;;;;;;;;;;26.90;35.07;99959.94;5095709;28;19981;-70
2022/08/11 10:48:40;;;;;;;;;;;;;;;26.87;33.71;99961.94;5095441;28;19928;-71
2022/08/11 10:51:12;;;;;;;;;;;;;;;27.15;33.83;99952.22;5095272;28;19924;-72
2022/08/11 10:59:02;;;;;;;;;;;;;;;27.35;33.20;99948.31;5095109;28;19924;-72
2022/08/11 11:01:32;;;;;;;;;;;;;;;27.52;32.85;99944.59;5095437;28;20052;-72
2022/08/11 11:04:09;;;;;;;;;;;;;;;27.70;32.64;99938.97;5095027;28;19924;-72
2022/08/11 11:06:46;;;;;;;;;;;;;;;27.98;32.77;99937.13;5095340;28;20395;-72
2022/08/11 11:09:17;;;;;;;;;;;;;;;28.14;31.69;99933.38;5095354;28;20019;-71
2022/08/11 11:19:58;;;;;;;;;;;;;;;28.24;28.80;99917.81;5114979;28;19963;-71
2022/08/11 11:25:21;;;;;;;;;;;;;;;28.33;29.27;99911.91;5114961;28;20396;-71
2022/08/11 11:27:57;;;;;;;;;;;;;;;28.43;28.76;99918.22;5115624;28;19924;-71
2022/08/11 11:30:28;;;;;;;;;;;;;;;28.64;28.38;99905.34;5115325;28;19927;-71
2022/08/11 11:33:03;;;;;;;;;;;;;;;28.91;28.57;99898.97;5114814;28;19924;-71
2022/08/11 11:35:36;;;;;;;;;;;;;;;28.89;27.54;99906.09;5115276;28;19930;-71
2022/08/11 11:38:09;;;;;;;;;;;;;;;28.95;28.39;99903.03;5114800;28;19993;-71
2022/08/11 11:40:41;;;;;;;;;;;;;;;29.14;27.51;99900.75;5115137;28;19923;-71
2022/08/11 11:43:10;;;;;;;;;;;;;;;29.22;26.78;99896.75;5114713;28;19923;-71
2022/08/11 11:45:41;;;;;;;;;;;;;;;29.18;26.53;99896.09;5114760;28;19930;-71
2022/08/11 11:48:12;;;;;;;;;;;;;;;29.19;25.88;99898.66;5115355;28;19924;-71
2022/08/11 11:50:40;;;;;;;;;;;;;;;29.17;25.21;99887.38;5115000;28;19938;-71
2022/08/11 11:53:11;;;;;;;;;;;;;;;29.23;27.46;99880.03;5114474;28;19924;-71
2022/08/11 11:55:41;;;;;;;;;;;;;;;29.32;27.24;99881.97;5114984;28;20437;-71
2022/08/11 12:03:29;;;;;;;;;;;;;;;29.05;26.58;99880.41;5114760;28;20288;-71
2022/08/11 12:05:58;;;;;;;;;;;;;;;28.97;26.82;99881.88;5114426;28;19925;-71
2022/08/11 12:08:28;;;;;;;;;;;;;;;28.80;27.28;99883.13;5114732;28;19924;-71
2022/08/11 12:13:42;;;;;;;;;;;;;;;28.65;28.93;99881.59;5113688;28;19946;-71
2022/08/11 12:16:11;;;;;;;;;;;;;;;28.54;28.62;99877.09;5114631;28;19969;-71
2022/08/11 12:19:00;;;;;;;;;;;;;;;28.40;27.94;99876.38;5114758;28;19924;-71
2022/08/11 12:21:29;;;;;;;;;;;;;;;28.24;27.59;99881.88;5114545;28;19924;-71
2022/08/11 12:29:40;;;;;;;;;;;;;;;27.83;27.87;99876.81;5114137;28;19930;-71
2022/08/11 12:32:11;;;;;;;;;;;;;;;27.87;28.22;99870.44;5116179;28;19923;-71
2022/08/11 12:34:40;;;;;;;;;;;;;;;28.15;29.36;99874.63;5118513;28;20280;-71
2022/08/11 12:37:12;;;;;;;;;;;;;;;28.41;29.02;99857.06;5118132;28;19924;-71
2022/08/11 12:45:28;;;;;;;;;;;;;;;28.90;27.55;99849.97;5118519;28;19924;-71
2022/08/11 12:53:50;;;;;;;;;;;;;;;28.73;27.26;99852.97;5118259;28;19927;-71
2022/08/11 13:06:54;;;;;;;;;;;;;;;27.80;28.55;99853.44;5118134;28;19923;-71
2022/08/11 13:09:23;;;;;;;;;;;;;;;27.78;28.69;99852.72;5117569;28;19928;-71
2022/08/11 13:14:33;;;;;;;;;;;;;;;27.89;29.34;99844.94;5117558;28;19931;-72
2022/08/11 13:19:43;;;;;;;;;;;;;;;27.98;29.01;99853.13;5099723;28;19930;-72
2022/08/11 13:22:18;;;;;;;;;;;;;;;27.92;29.15;99843.88;5117708;28;20254;-71
2022/08/11 13:24:48;;;;;;;;;;;;;;;27.83;29.33;99847.97;5117621;28;20315;-72
2022/08/11 13:27:19;;;;;;;;;;;;;;;27.73;29.41;99849.56;5117706;28;19955;-71
2022/08/11 13:29:51;;;;;;;;;;;;;;;27.69;29.88;99847.25;5117632;28;19973;-72
2022/08/11 13:32:20;;;;;;;;;;;;;;;27.63;29.94;99840.63;5117185;28;20444;-71
2022/08/11 13:34:49;;;;;;;;;;;;;;;27.63;30.81;99832.78;5117245;28;19963;-72
2022/08/11 13:37:20;;;;;;;;;;;;;;;27.61;30.01;99834.66;5117765;28;19923;-71
2022/08/11 13:40:10;;;;;;;;;;;;;;;27.62;30.60;99840.72;5133411;27;19923;-71
2022/08/11 13:42:40;;;;;;;;;;;;;;;27.68;30.05;99835.91;5117049;28;20369;-71
2022/08/11 13:45:09;;;;;;;;;;;;;;;27.64;30.02;99839.69;5117042;28;19930;-72
2022/08/11 13:47:42;;;;;;;;;;;;;;;27.65;30.43;99836.13;5117338;28;19931;-72
2022/08/11 13:50:12;;;;;;;;;;;;;;;27.70;29.98;99823.53;5117209;28;19924;-71
2022/08/11 13:52:41;;;;;;;;;;;;;;;27.85;30.05;99822.47;5117230;28;19924;-72
2022/08/11 13:55:20;;;;;;;;;;;;;;;28.05;30.40;99828.97;5116846;28;19924;-71
2022/08/11 13:58:11;;;;;;;;;;;;;;;28.23;30.55;99822.44;5117126;28;20038;-72
2022/08/11 14:01:00;;;;;;;;;;;;;;;28.37;31.21;99821.44;5116695;28;20014;-71
2022/08/11 14:03:49;;;;;;;;;;;;;;;28.40;31.14;99823.88;5116587;28;19985;-71
2022/08/11 14:06:41;;;;;;;;;;;;;;;28.31;30.80;99814.03;5116928;28;19923;-71
2022/08/11 14:09:10;;;;;;;;;;;;;;;28.39;30.77;99806.41;5116527;28;19924;-71
2022/08/11 14:14:41;;;;;;;;;;;;;;;28.42;30.94;99811.44;5116306;28;19969;-71
2022/08/11 14:17:10;;;;;;;;;;;;;;;28.50;30.74;99809.13;5116318;28;19931;-71
2022/08/11 14:20:01;;;;;;;;;;;;;;;28.47;30.41;99804.09;5116712;28;19950;-71
2022/08/11 14:22:51;;;;;;;;;;;;;;;28.31;30.16;99800.88;5116653;28;19924;-71
2022/08/11 14:25:19;;;;;;;;;;;;;;;28.25;30.29;99803.94;5116497;28;19931;-71
2022/08/11 14:27:55;;;;;;;;;;;;;;;28.17;30.31;99806.28;5116579;28;19924;-71
2022/08/11 14:33:28;;;;;;;;;;;;;;;27.95;31.29;99803.47;5098465;28;19931;-71
2022/08/11 14:36:18;;;;;;;;;;;;;;;27.90;32.33;99803.78;5115947;28;19927;-71
2022/08/11 14:38:47;;;;;;;;;;;;;;;27.84;32.93;99804.19;5115837;28;19927;-71
2022/08/11 14:49:22;;;;;;;;;;;;;;;27.40;33.36;99804.66;5116224;28;20294;-71
2022/08/11 14:51:53;;;;;;;;;;;;;;;27.37;33.63;99802.19;5115972;28;19945;-71
2022/08/11 14:57:03;;;;;;;;;;;;;;;27.30;33.39;99800.94;5115934;28;19924;-71
2022/08/11 14:59:32;;;;;;;;;;;;;;;27.28;33.04;99800.22;5115495;28;19967;-71
2022/08/11 15:04:41;;;;;;;;;;;;;;;27.28;33.41;99800.22;5115349;28;19930;-71
2022/08/11 15:07:11;;;;;;;;;;;;;;;27.29;33.70;99807.09;5115401;28;19982;-71
2022/08/11 15:09:45;;;;;;;;;;;;;;;27.33;33.77;99807.75;5115655;28;19923;-71
2022/08/11 15:12:34;;;;;;;;;;;;;;;27.33;33.66;99813.81;5115612;28;20365;-71
2022/08/11 15:17:46;;;;;;;;;;;;;;;27.10;33.65;99807.50;5115586;28;19974;-71
2022/08/11 15:25:35;;;;;;;;;;;;;;;27.18;34.11;99826.19;5115437;28;20266;-71
2022/08/11 15:38:55;;;;;;;;;;;;;;;25.93;35.80;99831.63;5115128;28;19924;-72
2022/08/11 15:46:49;;;;;;;;;;;;;;;25.74;36.61;99841.53;5113852;28;20392;-72
2022/08/11 15:49:29;;;;;;;;;;;;;;;25.75;36.59;99835.34;5114628;28;19946;-70
2022/08/11 15:52:19;;;;;;;;;;;;;;;25.71;36.62;99841.69;5114481;28;19928;-70
2022/08/11 15:54:48;;;;;;;;;;;;;;;25.61;36.52;99835.34;5114761;28;19927;-70
2022/08/11 16:05:32;;;;;;;;;;;;;;;25.17;37.87;99846.59;5114649;28;20015;-70
2022/08/11 16:08:24;;;;;;;;;;;;;;;25.04;37.99;99840.41;5114428;28;20022;-70
2022/08/11 16:11:00;;;;;;;;;;;;;;;24.88;38.40;99849.22;5114347;28;19927;-70
2022/08/11 16:16:17;;;;;;;;;;;;;;;24.73;38.91;99845.66;5114376;28;19924;-70
2022/08/11 16:18:49;;;;;;;;;;;;;;;24.74;38.44;99847.31;5114357;28;20377;-70
2022/08/11 16:21:24;;;;;;;;;;;;;;;24.78;38.41;99843.66;5114704;28;19928;-70
2022/08/11 16:24:06;;;;;;;;;;;;;;;24.73;38.60;99850.88;5114715;28;19945;-70
2022/08/11 16:26:37;;;;;;;;;;;;;;;24.63;40.01;99854.91;5113256;28;19954;-70
2022/08/11 16:29:28;;;;;;;;;;;;;;;24.64;42.31;99843.56;5114667;28;19966;-70
2022/08/11 16:39:56;;;;;;;;;;;;;;;24.34;47.63;99803.47;5114216;28;19931;-70
2022/08/11 16:48:03;;;;;;;;;;;;;;;24.25;44.85;99801.38;5114116;28;20398;-70
2022/08/11 16:50:51;;;;;;;;;;;;;;;24.35;45.10;99792.13;5114475;28;19923;-70
2022/08/11 16:53:21;;;;;;;;;;;;;;;24.35;46.72;99787.75;5114226;28;19927;-70
2022/08/11 16:56:13;;;;;;;;;;;;;;;24.29;46.25;99784.63;5113935;28;19924;-70
2022/08/11 17:01:21;;;;;;;;;;;;;;;24.18;43.87;99790.44;5114441;28;19977;-70
2022/08/11 17:14:37;;;;;;;;;;;;;;;24.33;43.42;99791.38;5114170;28;19976;-70
2022/08/11 17:17:07;;;;;;;;;;;;;;;24.40;41.64;99795.31;5113810;28;19931;-70
2022/08/11 17:19:38;;;;;;;;;;;;;;;24.42;40.92;99820.41;5117169;28;20016;-71
2022/08/11 17:25:10;;;;;;;;;;;;;;;24.08;42.84;99819.72;5117475;28;19930;-70
2022/08/11 17:27:38;;;;;;;;;;;;;;;24.05;43.25;99832.88;5117628;28;20373;-70
2022/08/11 17:30:08;;;;;;;;;;;;;;;23.86;44.06;99839.06;5117352;28;19966;-71
2022/08/11 17:35:31;;;;;;;;;;;;;;;23.61;46.71;99849.06;5107871;28;19939;-70
2022/08/11 17:38:02;;;;;;;;;;;;;;;23.51;47.72;99844.41;5099782;28;19928;-70
2022/08/11 17:40:37;;;;;;;;;;;;;;;23.39;49.11;99843.28;5100187;28;20374;-72
2022/08/11 17:48:28;;;;;;;;;;;;;;;23.32;51.13;99850.50;5097172;28;19924;-71
2022/08/11 17:50:59;;;;;;;;;;;;;;;23.21;51.71;99846.75;5096783;28;19954;-71
2022/08/11 18:01:49;;;;;;;;;;;;;;;23.24;52.33;99831.00;5102459;28;19928;-71
2022/08/11 18:04:23;;;;;;;;;;;;;;;23.21;52.20;99836.34;5101578;28;20018;-72
2022/08/11 18:06:54;;;;;;;;;;;;;;;23.19;52.06;99832.97;5094596;28;20370;-73
